sensor_id;sensor_type;location;lat;lon;timestamp;temperature;humidity
19728;DHT22;10015;52.530;13.390;2023-06-22T00:00:51;24.00;99.90
19728;DHT22;10015;52.530;13.390;2023-06-22T00:03:18;24.00;99.90
19728;DHT22;10015;52.530;13.390;2023-06-22T00:05:45;24.00;99.90
19728;DHT22;10015;52.530;13.390;2023-06-22T00:08:12;24.00;99.90
19728;DHT22;10015;52.530;13.390;2023-06-22T00:10:38;24.00;99.90
19728;DHT22;10015;52.530;13.390;2023-06-22T00:13:04;24.00;99.90
19728;DHT22;10015;52.530;13.390;2023-06-22T00:15:30;23.90;99.90
19728;DHT22;10015;52.530;13.390;2023-06-22T00:17:56;24.00;99.90
19728;DHT22;10015;52.530;13.390;2023-06-22T00:20:23;23.90;99.90
19728;DHT22;10015;52.530;13.390;2023-06-22T00:22:54;23.80;99.90
19728;DHT22;10015;52.530;13.390;2023-06-22T00:25:20;23.90;99.90
19728;DHT22;10015;52.530;13.390;2023-06-22T00:27:46;23.80;99.90
19728;DHT22;10015;52.530;13.390;2023-06-22T00:30:12;23.80;99.90
19728;DHT22;10015;52.530;13.390;2023-06-22T00:32:38;23.80;99.90
19728;DHT22;10015;52.530;13.390;2023-06-22T00:35:05;23.80;99.90
19728;DHT22;10015;52.530;13.390;2023-06-22T00:37:31;23.80;99.90
19728;DHT22;10015;52.530;13.390;2023-06-22T00:39:58;23.70;99.90
19728;DHT22;10015;52.530;13.390;2023-06-22T00:42:24;23.70;99.90
19728;DHT22;10015;52.530;13.390;2023-06-22T00:44:50;23.70;99.90
19728;DHT22;10015;52.530;13.390;2023-06-22T00:47:18;23.70;99.90
19728;DHT22;10015;52.530;13.390;2023-06-22T00:49:44;23.70;99.90
19728;DHT22;10015;52.530;13.390;2023-06-22T00:52:12;23.70;99.90
19728;DHT22;10015;52.530;13.390;2023-06-22T00:54:50;23.70;99.90
19728;DHT22;10015;52.530;13.390;2023-06-22T00:57:17;23.60;99.90
19728;DHT22;10015;52.530;13.390;2023-06-22T00:59:45;23.60;99.90
19728;DHT22;10015;52.530;13.390;2023-06-22T01:02:11;23.60;99.90
19728;DHT22;10015;52.530;13.390;2023-06-22T01:04:39;23.50;99.90
19728;DHT22;10015;52.530;13.390;2023-06-22T01:07:31;23.50;99.90
19728;DHT22;10015;52.530;13.390;2023-06-22T01:10:14;23.50;99.90
19728;DHT22;10015;52.530;13.390;2023-06-22T01:12:48;23.50;99.90
19728;DHT22;10015;52.530;13.390;2023-06-22T01:17:53;23.50;99.90
19728;DHT22;10015;52.530;13.390;2023-06-22T01:20:22;23.40;99.90
19728;DHT22;10015;52.530;13.390;2023-06-22T01:25:46;23.40;99.90
19728;DHT22;10015;52.530;13.390;2023-06-22T01:30:54;23.40;99.90
19728;DHT22;10015;52.530;13.390;2023-06-22T01:33:29;23.30;99.90
19728;DHT22;10015;52.530;13.390;2023-06-22T01:35:57;23.40;99.90
19728;DHT22;10015;52.530;13.390;2023-06-22T01:38:23;23.30;99.90
19728;DHT22;10015;52.530;13.390;2023-06-22T01:40:50;23.30;99.90
19728;DHT22;10015;52.530;13.390;2023-06-22T01:43:17;23.30;99.90
19728;DHT22;10015;52.530;13.390;2023-06-22T01:45:43;23.30;99.90
19728;DHT22;10015;52.530;13.390;2023-06-22T01:48:09;23.30;99.90
19728;DHT22;10015;52.530;13.390;2023-06-22T01:50:35;23.20;99.90
19728;DHT22;10015;52.530;13.390;2023-06-22T01:53:01;23.20;99.90
19728;DHT22;10015;52.530;13.390;2023-06-22T01:55:27;23.20;99.90
19728;DHT22;10015;52.530;13.390;2023-06-22T01:57:53;23.20;99.90
19728;DHT22;10015;52.530;13.390;2023-06-22T02:00:21;23.20;99.90
19728;DHT22;10015;52.530;13.390;2023-06-22T02:03:03;23.10;99.90
19728;DHT22;10015;52.530;13.390;2023-06-22T02:06:01;23.10;99.90
19728;DHT22;10015;52.530;13.390;2023-06-22T02:08:32;23.10;99.90
19728;DHT22;10015;52.530;13.390;2023-06-22T02:11:00;23.10;99.90
19728;DHT22;10015;52.530;13.390;2023-06-22T02:13:29;23.10;99.90
19728;DHT22;10015;52.530;13.390;2023-06-22T02:15:56;23.10;99.90
19728;DHT22;10015;52.530;13.390;2023-06-22T02:18:22;23.10;99.90
19728;DHT22;10015;52.530;13.390;2023-06-22T02:20:47;23.00;99.90
19728;DHT22;10015;52.530;13.390;2023-06-22T02:23:13;23.00;99.90
19728;DHT22;10015;52.530;13.390;2023-06-22T02:25:39;23.00;99.90
19728;DHT22;10015;52.530;13.390;2023-06-22T02:28:05;23.00;99.90
19728;DHT22;10015;52.530;13.390;2023-06-22T02:30:32;23.00;99.90
19728;DHT22;10015;52.530;13.390;2023-06-22T02:33:02;23.00;99.90
19728;DHT22;10015;52.530;13.390;2023-06-22T02:35:28;23.00;99.90
19728;DHT22;10015;52.530;13.390;2023-06-22T02:38:01;23.00;99.90
19728;DHT22;10015;52.530;13.390;2023-06-22T02:40:29;23.00;99.90
19728;DHT22;10015;52.530;13.390;2023-06-22T02:42:56;23.00;99.90
19728;DHT22;10015;52.530;13.390;2023-06-22T02:45:29;23.00;99.90
19728;DHT22;10015;52.530;13.390;2023-06-22T02:47:55;23.00;99.90
19728;DHT22;10015;52.530;13.390;2023-06-22T02:50:22;23.00;99.90
19728;DHT22;10015;52.530;13.390;2023-06-22T02:52:48;22.90;99.90
19728;DHT22;10015;52.530;13.390;2023-06-22T02:55:14;22.90;99.90
19728;DHT22;10015;52.530;13.390;2023-06-22T02:57:42;22.90;99.90
19728;DHT22;10015;52.530;13.390;2023-06-22T03:00:10;22.90;99.90
19728;DHT22;10015;52.530;13.390;2023-06-22T03:02:45;23.00;99.90
19728;DHT22;10015;52.530;13.390;2023-06-22T03:05:12;23.00;99.90
19728;DHT22;10015;52.530;13.390;2023-06-22T03:07:49;23.00;99.90
19728;DHT22;10015;52.530;13.390;2023-06-22T03:10:16;23.10;99.90
19728;DHT22;10015;52.530;13.390;2023-06-22T03:12:43;23.00;99.90
19728;DHT22;10015;52.530;13.390;2023-06-22T03:15:11;23.00;99.90
19728;DHT22;10015;52.530;13.390;2023-06-22T03:17:37;23.00;99.90
19728;DHT22;10015;52.530;13.390;2023-06-22T03:20:08;23.00;99.90
19728;DHT22;10015;52.530;13.390;2023-06-22T03:22:37;23.00;99.90
19728;DHT22;10015;52.530;13.390;2023-06-22T03:25:03;22.90;99.90
19728;DHT22;10015;52.530;13.390;2023-06-22T03:27:30;23.00;99.90
19728;DHT22;10015;52.530;13.390;2023-06-22T03:29:57;23.00;99.90
19728;DHT22;10015;52.530;13.390;2023-06-22T03:32:23;23.00;99.90
19728;DHT22;10015;52.530;13.390;2023-06-22T03:34:49;23.00;99.90
19728;DHT22;10015;52.530;13.390;2023-06-22T03:37:16;23.00;99.90
19728;DHT22;10015;52.530;13.390;2023-06-22T03:39:42;23.00;99.90
19728;DHT22;10015;52.530;13.390;2023-06-22T03:42:08;23.10;99.90
19728;DHT22;10015;52.530;13.390;2023-06-22T03:44:35;23.10;99.90
19728;DHT22;10015;52.530;13.390;2023-06-22T03:47:04;23.10;99.90
19728;DHT22;10015;52.530;13.390;2023-06-22T03:49:29;23.10;99.90
19728;DHT22;10015;52.530;13.390;2023-06-22T03:51:55;23.10;99.90
19728;DHT22;10015;52.530;13.390;2023-06-22T03:54:21;23.00;99.90
19728;DHT22;10015;52.530;13.390;2023-06-22T03:56:47;23.00;99.90
19728;DHT22;10015;52.530;13.390;2023-06-22T03:59:13;23.00;99.90
19728;DHT22;10015;52.530;13.390;2023-06-22T04:01:39;23.00;99.90
19728;DHT22;10015;52.530;13.390;2023-06-22T04:04:05;23.00;99.90
19728;DHT22;10015;52.530;13.390;2023-06-22T04:06:31;23.00;99.90
19728;DHT22;10015;52.530;13.390;2023-06-22T04:08:57;23.00;99.90
19728;DHT22;10015;52.530;13.390;2023-06-22T04:11:23;22.90;99.90
19728;DHT22;10015;52.530;13.390;2023-06-22T04:13:49;22.90;99.90
19728;DHT22;10015;52.530;13.390;2023-06-22T04:16:16;22.90;99.90
19728;DHT22;10015;52.530;13.390;2023-06-22T04:18:42;22.80;99.90
19728;DHT22;10015;52.530;13.390;2023-06-22T04:21:09;22.80;99.90
19728;DHT22;10015;52.530;13.390;2023-06-22T04:23:35;22.80;99.90
19728;DHT22;10015;52.530;13.390;2023-06-22T04:26:01;22.90;99.90
19728;DHT22;10015;52.530;13.390;2023-06-22T04:28:27;22.90;99.90
19728;DHT22;10015;52.530;13.390;2023-06-22T04:30:53;23.00;99.90
19728;DHT22;10015;52.530;13.390;2023-06-22T04:33:23;23.00;99.90
19728;DHT22;10015;52.530;13.390;2023-06-22T04:35:48;23.10;99.90
19728;DHT22;10015;52.530;13.390;2023-06-22T04:38:14;23.10;99.90
19728;DHT22;10015;52.530;13.390;2023-06-22T04:40:40;23.20;99.90
19728;DHT22;10015;52.530;13.390;2023-06-22T04:43:06;23.20;99.90
19728;DHT22;10015;52.530;13.390;2023-06-22T04:45:33;23.20;99.90
19728;DHT22;10015;52.530;13.390;2023-06-22T04:47:59;23.30;99.90
19728;DHT22;10015;52.530;13.390;2023-06-22T04:50:25;23.30;99.90
19728;DHT22;10015;52.530;13.390;2023-06-22T04:52:51;23.40;99.90
19728;DHT22;10015;52.530;13.390;2023-06-22T04:55:18;23.40;99.90
19728;DHT22;10015;52.530;13.390;2023-06-22T04:57:46;23.30;99.90
19728;DHT22;10015;52.530;13.390;2023-06-22T05:00:19;23.30;99.90
19728;DHT22;10015;52.530;13.390;2023-06-22T05:02:46;23.30;99.90
19728;DHT22;10015;52.530;13.390;2023-06-22T05:05:13;23.40;99.90
19728;DHT22;10015;52.530;13.390;2023-06-22T05:07:44;23.50;99.90
19728;DHT22;10015;52.530;13.390;2023-06-22T05:10:11;23.40;99.90
19728;DHT22;10015;52.530;13.390;2023-06-22T05:12:38;23.50;99.90
19728;DHT22;10015;52.530;13.390;2023-06-22T05:15:05;23.60;99.90
19728;DHT22;10015;52.530;13.390;2023-06-22T05:17:31;23.70;99.90
19728;DHT22;10015;52.530;13.390;2023-06-22T05:19:57;23.80;99.90
19728;DHT22;10015;52.530;13.390;2023-06-22T05:22:23;23.90;99.90
19728;DHT22;10015;52.530;13.390;2023-06-22T05:24:49;23.80;99.90
19728;DHT22;10015;52.530;13.390;2023-06-22T05:27:15;23.90;99.90
19728;DHT22;10015;52.530;13.390;2023-06-22T05:29:41;23.80;99.90
19728;DHT22;10015;52.530;13.390;2023-06-22T05:32:10;23.60;99.90
19728;DHT22;10015;52.530;13.390;2023-06-22T05:34:36;23.50;99.90
19728;DHT22;10015;52.530;13.390;2023-06-22T05:37:03;23.50;99.90
19728;DHT22;10015;52.530;13.390;2023-06-22T05:39:29;23.50;99.90
19728;DHT22;10015;52.530;13.390;2023-06-22T05:41:55;23.60;99.90
19728;DHT22;10015;52.530;13.390;2023-06-22T05:44:20;23.60;99.90
19728;DHT22;10015;52.530;13.390;2023-06-22T05:46:46;23.70;99.90
19728;DHT22;10015;52.530;13.390;2023-06-22T05:49:14;23.60;99.90
19728;DHT22;10015;52.530;13.390;2023-06-22T05:51:41;23.70;99.90
19728;DHT22;10015;52.530;13.390;2023-06-22T05:54:07;23.70;99.90
19728;DHT22;10015;52.530;13.390;2023-06-22T05:56:34;23.70;99.90
19728;DHT22;10015;52.530;13.390;2023-06-22T05:59:00;23.90;99.90
19728;DHT22;10015;52.530;13.390;2023-06-22T06:01:26;24.00;99.90
19728;DHT22;10015;52.530;13.390;2023-06-22T06:03:52;24.00;99.90
19728;DHT22;10015;52.530;13.390;2023-06-22T06:06:18;23.90;99.90
19728;DHT22;10015;52.530;13.390;2023-06-22T06:08:47;24.00;99.90
19728;DHT22;10015;52.530;13.390;2023-06-22T06:11:12;24.00;99.90
19728;DHT22;10015;52.530;13.390;2023-06-22T06:13:38;24.00;99.90
19728;DHT22;10015;52.530;13.390;2023-06-22T06:16:04;24.10;99.90
19728;DHT22;10015;52.530;13.390;2023-06-22T06:18:30;24.40;99.90
19728;DHT22;10015;52.530;13.390;2023-06-22T06:20:56;24.50;99.90
19728;DHT22;10015;52.530;13.390;2023-06-22T06:23:22;24.50;99.90
19728;DHT22;10015;52.530;13.390;2023-06-22T06:25:48;24.30;99.90
19728;DHT22;10015;52.530;13.390;2023-06-22T06:28:14;24.30;99.90
19728;DHT22;10015;52.530;13.390;2023-06-22T06:30:40;24.40;99.90
19728;DHT22;10015;52.530;13.390;2023-06-22T06:33:06;24.60;99.90
19728;DHT22;10015;52.530;13.390;2023-06-22T06:35:34;25.00;99.90
19728;DHT22;10015;52.530;13.390;2023-06-22T06:38:00;25.30;99.90
19728;DHT22;10015;52.530;13.390;2023-06-22T06:40:26;25.60;99.90
19728;DHT22;10015;52.530;13.390;2023-06-22T06:42:52;25.90;99.90
19728;DHT22;10015;52.530;13.390;2023-06-22T06:45:22;26.00;99.90
19728;DHT22;10015;52.530;13.390;2023-06-22T06:47:49;26.10;99.90
19728;DHT22;10015;52.530;13.390;2023-06-22T06:50:16;26.00;99.90
19728;DHT22;10015;52.530;13.390;2023-06-22T06:52:42;26.00;99.90
19728;DHT22;10015;52.530;13.390;2023-06-22T06:55:09;26.00;99.90
19728;DHT22;10015;52.530;13.390;2023-06-22T06:57:40;25.80;99.90
19728;DHT22;10015;52.530;13.390;2023-06-22T07:00:07;25.80;99.90
19728;DHT22;10015;52.530;13.390;2023-06-22T07:02:38;26.10;99.90
19728;DHT22;10015;52.530;13.390;2023-06-22T07:05:06;26.20;99.90
19728;DHT22;10015;52.530;13.390;2023-06-22T07:07:32;26.30;99.90
19728;DHT22;10015;52.530;13.390;2023-06-22T07:09:59;26.40;99.90
19728;DHT22;10015;52.530;13.390;2023-06-22T07:12:25;26.60;99.90
19728;DHT22;10015;52.530;13.390;2023-06-22T07:14:52;26.70;99.90
19728;DHT22;10015;52.530;13.390;2023-06-22T07:17:18;26.80;99.90
19728;DHT22;10015;52.530;13.390;2023-06-22T07:19:45;27.00;99.90
19728;DHT22;10015;52.530;13.390;2023-06-22T07:22:11;26.90;99.90
19728;DHT22;10015;52.530;13.390;2023-06-22T07:24:37;26.90;99.90
19728;DHT22;10015;52.530;13.390;2023-06-22T07:27:03;26.90;99.90
19728;DHT22;10015;52.530;13.390;2023-06-22T07:29:30;27.00;99.90
19728;DHT22;10015;52.530;13.390;2023-06-22T07:31:57;27.00;99.90
19728;DHT22;10015;52.530;13.390;2023-06-22T07:34:24;27.20;99.90
19728;DHT22;10015;52.530;13.390;2023-06-22T07:36:50;27.20;99.90
19728;DHT22;10015;52.530;13.390;2023-06-22T07:39:16;27.20;99.90
19728;DHT22;10015;52.530;13.390;2023-06-22T07:41:42;27.10;99.90
19728;DHT22;10015;52.530;13.390;2023-06-22T07:44:07;27.20;99.90
19728;DHT22;10015;52.530;13.390;2023-06-22T07:46:34;27.20;99.90
19728;DHT22;10015;52.530;13.390;2023-06-22T07:49:00;27.40;99.90
19728;DHT22;10015;52.530;13.390;2023-06-22T07:51:27;27.50;99.90
19728;DHT22;10015;52.530;13.390;2023-06-22T07:53:53;27.60;99.90
19728;DHT22;10015;52.530;13.390;2023-06-22T07:56:19;27.60;99.90
19728;DHT22;10015;52.530;13.390;2023-06-22T07:58:46;27.50;99.90
19728;DHT22;10015;52.530;13.390;2023-06-22T08:01:15;27.40;99.90
19728;DHT22;10015;52.530;13.390;2023-06-22T08:03:45;27.30;99.90
19728;DHT22;10015;52.530;13.390;2023-06-22T08:06:11;27.10;99.90
19728;DHT22;10015;52.530;13.390;2023-06-22T08:08:37;26.80;99.90
19728;DHT22;10015;52.530;13.390;2023-06-22T08:11:03;26.80;99.90
19728;DHT22;10015;52.530;13.390;2023-06-22T08:13:29;26.90;99.90
19728;DHT22;10015;52.530;13.390;2023-06-22T08:15:55;26.90;99.90
19728;DHT22;10015;52.530;13.390;2023-06-22T08:18:21;27.10;99.90
19728;DHT22;10015;52.530;13.390;2023-06-22T08:20:47;26.90;99.90
19728;DHT22;10015;52.530;13.390;2023-06-22T08:23:13;26.60;99.90
19728;DHT22;10015;52.530;13.390;2023-06-22T08:25:39;26.60;99.90
19728;DHT22;10015;52.530;13.390;2023-06-22T08:28:05;26.40;99.90
19728;DHT22;10015;52.530;13.390;2023-06-22T08:30:31;26.50;99.90
19728;DHT22;10015;52.530;13.390;2023-06-22T08:32:57;26.60;99.90
19728;DHT22;10015;52.530;13.390;2023-06-22T08:35:23;26.60;99.90
19728;DHT22;10015;52.530;13.390;2023-06-22T08:37:49;26.40;99.90
19728;DHT22;10015;52.530;13.390;2023-06-22T08:40:19;26.20;99.90
19728;DHT22;10015;52.530;13.390;2023-06-22T08:42:46;26.30;99.90
19728;DHT22;10015;52.530;13.390;2023-06-22T08:45:13;26.30;99.90
19728;DHT22;10015;52.530;13.390;2023-06-22T08:47:40;26.20;99.90
19728;DHT22;10015;52.530;13.390;2023-06-22T08:50:10;26.10;99.90
19728;DHT22;10015;52.530;13.390;2023-06-22T08:52:37;26.10;99.90
19728;DHT22;10015;52.530;13.390;2023-06-22T08:55:04;26.00;99.90
19728;DHT22;10015;52.530;13.390;2023-06-22T08:57:32;26.10;99.90
19728;DHT22;10015;52.530;13.390;2023-06-22T08:59:58;26.20;99.90
19728;DHT22;10015;52.530;13.390;2023-06-22T09:02:25;26.20;99.90
19728;DHT22;10015;52.530;13.390;2023-06-22T09:04:51;26.30;99.90
19728;DHT22;10015;52.530;13.390;2023-06-22T09:07:24;26.20;99.90
19728;DHT22;10015;52.530;13.390;2023-06-22T09:09:51;26.20;99.90
19728;DHT22;10015;52.530;13.390;2023-06-22T09:12:20;26.40;99.90
19728;DHT22;10015;52.530;13.390;2023-06-22T09:14:50;26.60;99.90
19728;DHT22;10015;52.530;13.390;2023-06-22T09:17:16;26.70;99.90
19728;DHT22;10015;52.530;13.390;2023-06-22T09:19:42;27.00;99.90
19728;DHT22;10015;52.530;13.390;2023-06-22T09:22:08;27.10;99.90
19728;DHT22;10015;52.530;13.390;2023-06-22T09:24:34;27.30;99.90
19728;DHT22;10015;52.530;13.390;2023-06-22T09:27:00;27.50;99.90
19728;DHT22;10015;52.530;13.390;2023-06-22T09:29:26;27.60;99.90
19728;DHT22;10015;52.530;13.390;2023-06-22T09:31:52;27.70;99.90
19728;DHT22;10015;52.530;13.390;2023-06-22T09:34:19;27.60;99.90
19728;DHT22;10015;52.530;13.390;2023-06-22T09:36:49;27.80;99.90
19728;DHT22;10015;52.530;13.390;2023-06-22T09:39:15;28.00;99.90
19728;DHT22;10015;52.530;13.390;2023-06-22T09:41:41;28.00;99.90
19728;DHT22;10015;52.530;13.390;2023-06-22T09:44:06;27.60;99.90
19728;DHT22;10015;52.530;13.390;2023-06-22T09:46:32;27.50;99.90
19728;DHT22;10015;52.530;13.390;2023-06-22T09:48:58;27.70;99.90
19728;DHT22;10015;52.530;13.390;2023-06-22T09:51:31;27.60;99.90
19728;DHT22;10015;52.530;13.390;2023-06-22T09:53:57;27.60;99.90
19728;DHT22;10015;52.530;13.390;2023-06-22T09:56:23;27.80;99.90
19728;DHT22;10015;52.530;13.390;2023-06-22T09:58:49;27.80;99.90
19728;DHT22;10015;52.530;13.390;2023-06-22T10:01:18;27.80;99.90
19728;DHT22;10015;52.530;13.390;2023-06-22T10:03:44;27.80;99.90
19728;DHT22;10015;52.530;13.390;2023-06-22T10:06:10;27.90;99.90
19728;DHT22;10015;52.530;13.390;2023-06-22T10:08:36;27.90;99.90
19728;DHT22;10015;52.530;13.390;2023-06-22T10:11:03;27.90;99.90
19728;DHT22;10015;52.530;13.390;2023-06-22T10:13:29;28.00;99.90
19728;DHT22;10015;52.530;13.390;2023-06-22T10:15:55;28.20;99.90
19728;DHT22;10015;52.530;13.390;2023-06-22T10:18:21;28.30;99.90
19728;DHT22;10015;52.530;13.390;2023-06-22T10:20:49;28.20;99.90
19728;DHT22;10015;52.530;13.390;2023-06-22T10:23:17;28.20;99.90
19728;DHT22;10015;52.530;13.390;2023-06-22T10:25:43;28.30;99.90
19728;DHT22;10015;52.530;13.390;2023-06-22T10:28:09;28.30;99.90
19728;DHT22;10015;52.530;13.390;2023-06-22T10:30:35;28.40;99.90
19728;DHT22;10015;52.530;13.390;2023-06-22T10:33:01;28.50;99.90
19728;DHT22;10015;52.530;13.390;2023-06-22T10:35:27;28.60;99.90
19728;DHT22;10015;52.530;13.390;2023-06-22T10:37:54;28.70;99.90
19728;DHT22;10015;52.530;13.390;2023-06-22T10:40:20;28.80;99.90
19728;DHT22;10015;52.530;13.390;2023-06-22T10:42:46;29.00;99.90
19728;DHT22;10015;52.530;13.390;2023-06-22T10:45:12;29.10;99.90
19728;DHT22;10015;52.530;13.390;2023-06-22T10:47:39;29.10;99.90
19728;DHT22;10015;52.530;13.390;2023-06-22T10:50:08;29.20;99.90
19728;DHT22;10015;52.530;13.390;2023-06-22T10:52:34;29.30;99.90
19728;DHT22;10015;52.530;13.390;2023-06-22T10:55:00;29.40;99.90
19728;DHT22;10015;52.530;13.390;2023-06-22T10:57:26;29.50;99.90
19728;DHT22;10015;52.530;13.390;2023-06-22T10:59:52;29.50;99.90
19728;DHT22;10015;52.530;13.390;2023-06-22T11:02:18;29.40;99.90
19728;DHT22;10015;52.530;13.390;2023-06-22T11:04:43;29.40;99.90
19728;DHT22;10015;52.530;13.390;2023-06-22T11:07:10;29.30;99.90
19728;DHT22;10015;52.530;13.390;2023-06-22T11:09:36;29.00;99.90
19728;DHT22;10015;52.530;13.390;2023-06-22T11:12:07;29.00;99.90
19728;DHT22;10015;52.530;13.390;2023-06-22T11:14:32;29.00;99.90
19728;DHT22;10015;52.530;13.390;2023-06-22T11:17:01;29.10;99.90
19728;DHT22;10015;52.530;13.390;2023-06-22T11:19:27;29.20;99.90
19728;DHT22;10015;52.530;13.390;2023-06-22T11:21:53;29.30;99.90
19728;DHT22;10015;52.530;13.390;2023-06-22T11:24:19;29.20;99.90
19728;DHT22;10015;52.530;13.390;2023-06-22T11:26:45;29.10;99.90
19728;DHT22;10015;52.530;13.390;2023-06-22T11:29:11;29.00;99.90
19728;DHT22;10015;52.530;13.390;2023-06-22T11:31:37;29.10;99.90
19728;DHT22;10015;52.530;13.390;2023-06-22T11:34:03;29.10;99.90
19728;DHT22;10015;52.530;13.390;2023-06-22T11:36:33;29.10;99.90
19728;DHT22;10015;52.530;13.390;2023-06-22T11:38:59;29.10;99.90
19728;DHT22;10015;52.530;13.390;2023-06-22T11:41:25;29.10;99.90
19728;DHT22;10015;52.530;13.390;2023-06-22T11:43:50;29.30;99.90
19728;DHT22;10015;52.530;13.390;2023-06-22T11:46:16;29.40;99.90
19728;DHT22;10015;52.530;13.390;2023-06-22T11:48:42;29.50;99.90
19728;DHT22;10015;52.530;13.390;2023-06-22T11:51:08;29.40;99.90
19728;DHT22;10015;52.530;13.390;2023-06-22T11:53:35;29.20;99.90
19728;DHT22;10015;52.530;13.390;2023-06-22T11:56:01;29.10;99.90
19728;DHT22;10015;52.530;13.390;2023-06-22T11:58:27;29.00;99.90
19728;DHT22;10015;52.530;13.390;2023-06-22T12:00:54;29.00;99.90
19728;DHT22;10015;52.530;13.390;2023-06-22T12:03:20;29.00;99.90
19728;DHT22;10015;52.530;13.390;2023-06-22T12:05:50;28.90;99.90
19728;DHT22;10015;52.530;13.390;2023-06-22T12:08:19;29.00;99.90
19728;DHT22;10015;52.530;13.390;2023-06-22T12:10:45;29.20;99.90
19728;DHT22;10015;52.530;13.390;2023-06-22T12:13:11;29.10;99.90
19728;DHT22;10015;52.530;13.390;2023-06-22T12:15:37;29.10;99.90
19728;DHT22;10015;52.530;13.390;2023-06-22T12:18:03;29.30;99.90
19728;DHT22;10015;52.530;13.390;2023-06-22T12:20:29;29.30;99.90
19728;DHT22;10015;52.530;13.390;2023-06-22T12:22:58;29.30;99.90
19728;DHT22;10015;52.530;13.390;2023-06-22T12:25:24;29.30;99.90
19728;DHT22;10015;52.530;13.390;2023-06-22T12:27:50;29.40;99.90
19728;DHT22;10015;52.530;13.390;2023-06-22T12:30:16;29.40;99.90
19728;DHT22;10015;52.530;13.390;2023-06-22T12:32:42;29.40;99.90
19728;DHT22;10015;52.530;13.390;2023-06-22T12:35:08;29.50;99.90
19728;DHT22;10015;52.530;13.390;2023-06-22T12:37:42;29.60;99.90
19728;DHT22;10015;52.530;13.390;2023-06-22T12:40:09;29.80;99.90
19728;DHT22;10015;52.530;13.390;2023-06-22T12:42:35;29.70;99.90
19728;DHT22;10015;52.530;13.390;2023-06-22T12:45:01;29.50;99.90
19728;DHT22;10015;52.530;13.390;2023-06-22T12:47:27;29.50;99.90
19728;DHT22;10015;52.530;13.390;2023-06-22T12:49:56;29.60;99.90
19728;DHT22;10015;52.530;13.390;2023-06-22T12:52:23;29.60;99.90
19728;DHT22;10015;52.530;13.390;2023-06-22T12:54:49;29.50;99.90
19728;DHT22;10015;52.530;13.390;2023-06-22T12:57:15;29.60;99.90
19728;DHT22;10015;52.530;13.390;2023-06-22T12:59:41;29.70;99.90
19728;DHT22;10015;52.530;13.390;2023-06-22T13:02:07;29.80;99.90
19728;DHT22;10015;52.530;13.390;2023-06-22T13:04:33;29.70;99.90
19728;DHT22;10015;52.530;13.390;2023-06-22T13:06:59;29.90;99.90
19728;DHT22;10015;52.530;13.390;2023-06-22T13:09:25;30.10;99.90
19728;DHT22;10015;52.530;13.390;2023-06-22T13:11:50;30.10;99.90
19728;DHT22;10015;52.530;13.390;2023-06-22T13:14:18;30.10;99.90
19728;DHT22;10015;52.530;13.390;2023-06-22T13:16:44;30.20;99.90
19728;DHT22;10015;52.530;13.390;2023-06-22T13:19:10;30.10;99.90
19728;DHT22;10015;52.530;13.390;2023-06-22T13:21:36;30.20;99.90
19728;DHT22;10015;52.530;13.390;2023-06-22T13:24:02;30.30;99.90
19728;DHT22;10015;52.530;13.390;2023-06-22T13:26:32;30.10;99.90
19728;DHT22;10015;52.530;13.390;2023-06-22T13:28:58;30.10;99.90
19728;DHT22;10015;52.530;13.390;2023-06-22T13:31:24;30.20;99.90
19728;DHT22;10015;52.530;13.390;2023-06-22T13:33:50;30.30;99.90
19728;DHT22;10015;52.530;13.390;2023-06-22T13:36:18;30.30;99.90
19728;DHT22;10015;52.530;13.390;2023-06-22T13:38:44;30.50;99.90
19728;DHT22;10015;52.530;13.390;2023-06-22T13:41:10;30.40;99.90
19728;DHT22;10015;52.530;13.390;2023-06-22T13:43:36;30.30;99.90
19728;DHT22;10015;52.530;13.390;2023-06-22T13:46:02;30.30;99.90
19728;DHT22;10015;52.530;13.390;2023-06-22T13:48:28;30.20;99.90
19728;DHT22;10015;52.530;13.390;2023-06-22T13:50:54;30.20;99.90
19728;DHT22;10015;52.530;13.390;2023-06-22T13:53:20;30.20;99.90
19728;DHT22;10015;52.530;13.390;2023-06-22T13:55:46;30.20;99.90
19728;DHT22;10015;52.530;13.390;2023-06-22T13:58:13;30.20;99.90
19728;DHT22;10015;52.530;13.390;2023-06-22T14:00:39;30.20;99.90
19728;DHT22;10015;52.530;13.390;2023-06-22T14:03:05;30.20;99.90
19728;DHT22;10015;52.530;13.390;2023-06-22T14:05:31;30.20;99.90
19728;DHT22;10015;52.530;13.390;2023-06-22T14:07:57;30.20;99.90
19728;DHT22;10015;52.530;13.390;2023-06-22T14:10:23;30.00;99.90
19728;DHT22;10015;52.530;13.390;2023-06-22T14:12:49;30.10;99.90
19728;DHT22;10015;52.530;13.390;2023-06-22T14:15:15;30.10;99.90
19728;DHT22;10015;52.530;13.390;2023-06-22T14:17:41;30.20;99.90
19728;DHT22;10015;52.530;13.390;2023-06-22T14:20:07;30.20;99.90
19728;DHT22;10015;52.530;13.390;2023-06-22T14:22:34;30.30;99.90
19728;DHT22;10015;52.530;13.390;2023-06-22T14:25:01;30.30;99.90
19728;DHT22;10015;52.530;13.390;2023-06-22T14:27:28;30.20;99.90
19728;DHT22;10015;52.530;13.390;2023-06-22T14:29:57;30.20;99.90
19728;DHT22;10015;52.530;13.390;2023-06-22T14:32:23;30.10;99.90
19728;DHT22;10015;52.530;13.390;2023-06-22T14:34:49;30.20;99.90
19728;DHT22;10015;52.530;13.390;2023-06-22T14:37:16;30.20;99.90
19728;DHT22;10015;52.530;13.390;2023-06-22T14:39:41;30.40;99.90
19728;DHT22;10015;52.530;13.390;2023-06-22T14:42:08;30.20;99.90
19728;DHT22;10015;52.530;13.390;2023-06-22T14:44:34;30.00;99.90
19728;DHT22;10015;52.530;13.390;2023-06-22T14:47:00;29.70;99.90
19728;DHT22;10015;52.530;13.390;2023-06-22T14:49:26;29.70;99.90
19728;DHT22;10015;52.530;13.390;2023-06-22T14:51:52;29.60;99.90
19728;DHT22;10015;52.530;13.390;2023-06-22T14:54:20;29.80;99.90
19728;DHT22;10015;52.530;13.390;2023-06-22T14:56:47;29.80;99.90
19728;DHT22;10015;52.530;13.390;2023-06-22T14:59:14;30.10;99.90
19728;DHT22;10015;52.530;13.390;2023-06-22T15:01:40;30.10;99.90
19728;DHT22;10015;52.530;13.390;2023-06-22T15:04:09;30.30;99.90
19728;DHT22;10015;52.530;13.390;2023-06-22T15:06:35;30.40;99.90
19728;DHT22;10015;52.530;13.390;2023-06-22T15:09:01;30.30;99.90
19728;DHT22;10015;52.530;13.390;2023-06-22T15:11:27;30.20;99.90
19728;DHT22;10015;52.530;13.390;2023-06-22T15:13:53;30.30;99.90
19728;DHT22;10015;52.530;13.390;2023-06-22T15:16:19;30.30;99.90
19728;DHT22;10015;52.530;13.390;2023-06-22T15:18:45;30.30;99.90
19728;DHT22;10015;52.530;13.390;2023-06-22T15:21:11;30.40;99.90